Latest Weather Observations for Albion Park

IDN60801

Issued at 7:06 am EDT Thursday 5 March 2015 (issued every 30 minutes, with the page automatically refreshed every 10 minutes)

About weather observations | Map of weather stations | Latest weather observations for NSW | Other Formats
Station Details ID: 068241 Name: WOLLONGONG AIRPORT Lat: -34.56 Lon: 150.79 Height: 8.0 m
Data from the previous 72 hours. | See also: Recent months at Albion Park
Date/Time
EDT
Temp
°C
App
Temp
°C
Dew
Point
Rel
Hum
%
Delta-T
°C
Wind Press
QNH
hPa
Press
MSL
hPa
Rain
since 9 am
mm
Dir
 
Spd
km/h
Gust
km/h
Spd
kts
Gust
kts
05/07:00am 21.2 17.7 5.5 36 7.8 W 13 20 7 11 1004.7 1004.7 0.0
05/06:30am 21.3 16.3 4.8 34 8.1 W 20 32 11 17 1004.4 1004.4 0.0
05/06:00am 21.0 16.7 5.4 36 7.8 WSW 17 32 9 17 1004.2 1004.2 0.0
05/05:30am 18.8 15.6 6.9 46 6.0 WNW 13 22 7 12 1003.9 1003.9 0.0
05/05:00am 19.2 16.0 7.0 45 6.2 WNW 13 17 7 9 1003.9 1003.9 0.0
05/04:30am 19.6 16.4 7.0 44 6.4 WSW 13 17 7 9 1003.9 1003.9 0.0
05/04:00am 17.2 14.1 8.9 58 4.3 SW 15 28 8 15 1003.9 1003.9 0.0
05/03:30am 15.7 16.2 15.5 99 0.1 SW 7 17 4 9 1004.3 1004.3 0.0
05/03:29am 15.5 15.9 15.3 99 0.1 SW 7 17 4 9 1004.3 1004.3 0.0
05/03:25am 15.8 16.5 15.6 99 0.1 SW 6 11 3 6 1004.4 1004.4 0.0
05/03:07am 15.8 16.5 15.6 99 0.1 W 6 9 3 5 1004.7 1004.7 0.0
05/03:00am 15.1 15.6 14.9 99 0.1 W 6 11 3 6 1004.8 1004.8 0.0
05/02:41am 15.7 17.5 15.5 99 0.1 CALM 0 0 0 0 1005.3 1005.3 0.0
05/02:30am 15.9 17.0 15.7 99 0.1 WNW 4 7 2 4 1005.6 1005.6 0.0
05/02:00am 16.6 17.6 16.3 98 0.2 WNW 6 9 3 5 1006.0 1006.0 0.0
05/01:30am 17.1 19.0 16.6 97 0.3 WNW 2 7 1 4 1006.4 1006.4 0.0
05/01:00am 18.7 21.6 18.2 97 0.3 CALM 0 0 0 0 1006.9 1006.9 0.0
05/12:59am 18.6 21.5 18.1 97 0.3 CALM 0 0 0 0 1007.0 1007.0 0.0
05/12:46am 19.4 22.7 19.1 98 0.2 CALM 0 0 0 0 1007.2 1007.2 0.0
05/12:30am 19.5 22.5 19.2 98 0.2 WNW 2 6 1 3 1007.2 1007.2 0.0
05/12:00am 19.9 22.3 19.7 99 0.1 WNW 6 7 3 4 1007.6 1007.6 0.0
 
Date/Time
EDT
Temp
°C
App
Temp
°C
Dew
Point
Rel
Hum
%
Delta-T
°C
Wind Press
QNH
hPa
Press
MSL
hPa
Rain
since 9 am
mm
Dir
 
Spd
km/h
Gust
km/h
Spd
kts
Gust
kts
04/11:30pm 20.2 22.2 19.9 98 0.2 WNW 9 11 5 6 1007.9 1007.9 0.0
04/11:00pm 20.8 22.3 20.5 98 0.2 WNW 13 13 7 7 1008.2 1008.2 0.0
04/10:30pm 21.1 24.3 20.4 96 0.5 NW 4 9 2 5 1008.7 1008.7 0.0
04/10:00pm 21.2 24.0 20.4 95 0.5 NW 6 7 3 4 1009.0 1009.0 0.0
04/09:30pm 21.8 24.6 20.4 92 0.9 NW 6 7 3 4 1008.9 1008.9 0.0
04/09:00pm 22.4 26.1 20.7 90 1.1 NNW 2 9 1 5 1008.9 1008.9 0.0
04/08:30pm 23.5 26.8 21.4 88 1.4 N 6 9 3 5 1008.6 1008.6 0.0
04/08:00pm 23.8 26.6 21.5 87 1.5 NNE 9 11 5 6 1008.4 1008.4 0.0
04/07:30pm 24.0 25.9 21.3 85 1.8 NE 13 17 7 9 1008.4 1008.4 0.0
04/07:00pm 24.3 25.5 21.4 84 1.9 NE 17 20 9 11 1008.4 1008.4 0.0
04/06:30pm 24.5 26.1 21.4 83 2.0 NE 15 19 8 10 1008.4 1008.4 0.0
04/06:00pm 24.5 26.1 21.4 83 2.1 ENE 15 20 8 11 1008.5 1008.5 0.0
04/05:30pm 25.1 27.1 21.6 81 2.3 ENE 13 19 7 10 1008.3 1008.3 0.0
04/05:00pm 24.7 26.3 21.4 82 2.2 NE 15 22 8 12 1008.7 1008.7 0.0
04/04:30pm 25.8 27.1 21.7 78 2.7 NE 17 20 9 11 1008.9 1008.9 0.0
04/04:00pm 25.9 27.2 21.6 77 2.9 NE 17 20 9 11 1009.1 1009.1 0.0
04/03:30pm 25.8 27.0 21.5 77 2.9 NE 17 20 9 11 1009.5 1009.5 0.0
04/03:00pm 25.6 26.6 21.1 76 3.0 NE 17 22 9 12 1010.0 1010.0 0.0
04/02:30pm 25.7 26.3 21.1 76 3.0 NE 19 22 10 12 1010.5 1010.5 0.0
04/02:00pm 25.7 26.3 20.3 72 3.5 NE 17 20 9 11 1010.8 1010.8 0.0
04/01:30pm 25.7 26.5 19.8 70 3.8 NE 15 20 8 11 1011.0 1011.0 0.0
04/01:00pm 26.0 27.0 20.3 71 3.7 NE 15 20 8 11 1011.6 1011.6 0.0
04/12:30pm 25.8 26.6 19.9 70 3.8 NE 15 20 8 11 1012.1 1012.1 0.0
04/12:00pm 25.7 26.1 19.8 70 3.8 NE 17 20 9 11 1012.6 1012.6 0.0
04/11:30am 26.0 26.9 20.1 70 3.8 ENE 15 19 8 10 1012.9 1012.9 0.0
04/11:00am 25.1 26.1 19.5 71 3.6 ENE 13 15 7 8 1013.5 1013.5 0.0
04/10:30am 25.0 26.9 18.9 69 3.9 ENE 7 11 4 6 1013.5 1013.5 0.0
04/10:00am 24.2 27.1 19.1 73 3.3 ENE 2 7 1 4 1013.9 1013.9 0.0
04/09:30am 23.2 25.4 19.1 78 2.6 WNW 6 11 3 6 1014.0 1014.0 0.0
04/09:00am 22.0 23.5 18.8 82 2.0 WNW 9 11 5 6 1014.1 1014.1 0.0
04/08:46am 21.7 23.6 18.9 84 1.8 W 7 9 4 5 1013.9 1013.9 0.0
04/08:30am 21.1 23.8 19.4 90 1.1 W 4 7 2 4 1013.9 1013.9 0.0
04/08:00am 20.1 23.4 19.1 94 0.6 CALM 0 0 0 0 1013.6 1013.6 0.0
04/07:33am 19.9 23.2 19.2 96 0.4 CALM 0 0 0 0 1013.2 1013.2 0.0
04/07:30am 19.9 23.2 19.2 96 0.4 CALM 0 0 0 0 1013.2 1013.2 0.0
04/07:00am 19.6 21.7 18.9 96 0.4 W 6 6 3 3 1012.9 1012.9 0.0
04/06:30am 19.5 21.5 18.8 96 0.4 W 6 7 3 4 1012.8 1012.8 0.0
04/06:00am 19.3 21.2 18.5 95 0.5 W 6 7 3 4 1012.8 1012.8 0.0
04/05:30am 19.4 21.1 18.4 94 0.6 W 7 7 4 4 1012.9 1012.9 0.0
04/05:05am 19.6 21.6 18.8 95 0.5 W 6 7 3 4 1012.9 1012.9 0.0
04/05:00am 19.6 21.6 18.8 95 0.5 W 6 7 3 4 1012.9 1012.9 0.0
04/04:37am 19.9 21.4 18.9 94 0.6 W 9 11 5 6 1013.2 1013.2 0.0
04/04:31am 19.9 21.3 18.7 93 0.7 W 9 13 5 7 1013.3 1013.3 0.0
04/04:30am 19.8 21.2 18.6 93 0.7 W 9 13 5 7 1013.3 1013.3 0.0
04/04:00am 20.0 21.0 18.7 92 0.8 WSW 11 13 6 7 1013.4 1013.4 0.0
04/03:30am 20.7 22.7 18.8 89 1.2 WNW 6 9 3 5 1013.5 1013.5 0.0
04/03:02am 20.7 23.9 18.8 89 1.2 CALM 0 0 0 0 1013.6 1013.6 0.0
04/03:00am 20.5 23.5 18.4 88 1.3 CALM 0 4 0 2 1013.6 1013.6 0.0
04/02:30am 20.8 22.9 18.9 89 1.2 W 6 7 3 4 1013.7 1013.7 0.0
04/02:00am 20.8 23.5 18.6 87 1.4 W 2 6 1 3 1014.0 1014.0 0.0
04/01:30am 20.8 22.6 18.4 86 1.5 NW 6 7 3 4 1014.3 1014.3 0.0
04/01:00am 20.9 22.5 17.9 83 1.9 W 6 6 3 3 1014.6 1014.6 0.0
04/12:30am 20.6 22.3 18.4 87 1.4 SW 7 9 4 5 1014.7 1014.7 0.0
04/12:00am 20.5 21.7 18.3 87 1.4 WSW 9 9 5 5 1014.8 1014.8 0.0
 
Date/Time
EDT
Temp
°C
App
Temp
°C
Dew
Point
Rel
Hum
%
Delta-T
°C
Wind Press
QNH
hPa
Press
MSL
hPa
Rain
since 9 am
mm
Dir
 
Spd
km/h
Gust
km/h
Spd
kts
Gust
kts
03/11:30pm 20.5 22.2 18.4 88 1.3 WNW 7 9 4 5 1015.1 1015.1 0.0
03/11:00pm 20.7 22.7 18.8 89 1.2 WSW 6 7 3 4 1015.1 1015.1 0.0
03/10:30pm 20.9 22.6 18.5 86 1.5 W 7 9 4 5 1015.3 1015.3 0.0
03/10:00pm 21.4 23.1 18.6 84 1.8 WSW 7 9 4 5 1015.2 1015.2 0.0
03/09:30pm 21.6 22.7 18.0 80 2.2 SSE 9 13 5 7 1015.2 1015.2 0.0
03/09:00pm 21.7 22.8 17.9 79 2.4 SSE 9 11 5 6 1014.8 1014.8 0.0
03/08:30pm 22.2 23.6 17.8 76 2.7 ESE 7 9 4 5 1014.6 1014.6 0.0
03/08:00pm 22.6 24.1 17.7 74 3.0 E 6 9 3 5 1014.6 1014.6 0.0
03/07:30pm 22.8 23.7 17.5 72 3.3 E 9 11 5 6 1014.3 1014.3 0.0
03/07:00pm 23.2 23.8 17.6 71 3.5 ENE 11 13 6 7 1014.0 1014.0 0.0
03/06:30pm 23.4 23.6 17.6 70 3.6 NE 13 19 7 10 1013.8 1013.8 0.0
03/06:00pm 24.1 23.7 18.1 69 3.8 NE 17 20 9 11 1013.5 1013.5 0.0
03/05:30pm 23.8 23.8 17.1 66 4.1 NE 13 20 7 11 1013.7 1013.7 0.0
03/05:00pm 24.8 24.8 18.0 66 4.3 NE 15 20 8 11 1013.5 1013.5 0.0
03/04:30pm 24.5 24.6 17.5 65 4.4 NE 13 17 7 9 1013.4 1013.4 0.0
03/04:00pm 24.0 23.1 16.8 64 4.4 NE 17 20 9 11 1013.5 1013.5 0.0
03/03:30pm 24.4 23.3 16.4 61 4.9 ENE 17 22 9 12 1013.7 1013.7 0.0
03/03:00pm 24.0 23.3 17.3 66 4.2 ENE 17 20 9 11 1013.7 1013.7 0.0
03/02:30pm 24.3 23.5 17.1 64 4.5 ENE 17 20 9 11 1013.9 1013.9 0.0
03/02:00pm 24.5 23.4 17.2 63 4.5 NE 19 26 10 14 1014.1 1014.1 0.0
03/01:30pm 26.0 25.3 18.2 62 4.9 NE 19 24 10 13 1013.8 1013.8 0.0
03/01:00pm 25.7 24.0 17.1 59 5.3 NE 22 28 12 15 1014.0 1014.0 0.0
03/12:30pm 25.7 24.1 16.5 56 5.7 ENE 20 26 11 14 1014.2 1014.2 0.0
03/12:00pm 26.0 24.5 16.8 57 5.7 ENE 20 26 11 14 1014.6 1014.6 0.0
03/11:30am 26.0 24.5 15.4 52 6.4 ENE 17 22 9 12 1015.0 1015.0 0.0
03/11:00am 25.3 23.8 14.1 50 6.6 N 15 22 8 12 1015.3 1015.3 0.0
03/10:30am 24.7 23.0 13.6 50 6.5 N 15 20 8 11 1015.3 1015.3 0.0
03/10:00am 23.9 23.1 14.0 54 5.8 NW 11 17 6 9 1015.4 1015.4 0.0
03/09:30am 23.2 22.9 14.5 58 5.1 NW 9 15 5 8 1015.7 1015.7 0.0
03/09:00am 21.5 22.7 13.7 61 4.5 CALM 0 0 0 0 1015.6 1015.6 0.0
03/08:30am 18.3 20.0 15.2 82 1.8 CALM 0 0 0 0 1015.5 1015.5 0.0
03/08:00am 16.8 18.3 15.8 94 0.6 WNW 2 6 1 3 1015.2 1015.2 0.0
03/07:30am 15.5 16.2 14.5 94 0.6 WNW 4 7 2 4 1015.0 1015.0 0.0
03/07:00am 15.1 15.1 14.1 94 0.6 WNW 7 11 4 6 1014.8 1014.8 0.0
03/06:30am 15.1 15.2 13.8 92 0.7 WNW 6 7 3 4 1014.8 1014.8 0.0
03/06:00am 15.6 14.4 14.0 90 0.9 W 13 15 7 8 1014.6 1014.6 0.0
03/05:30am 15.5 15.3 13.7 89 1.0 W 7 11 4 6 1014.4 1014.4 0.0
03/05:00am 15.9 16.7 13.7 87 1.2 W 2 6 1 3 1014.7 1014.7 0.0
03/04:30am 16.9 16.7 13.6 81 1.9 WNW 7 9 4 5 1014.9 1014.9 0.0
03/04:00am 17.8 17.5 14.3 80 2.0 NW 9 9 5 5 1014.9 1014.9 0.0
03/03:30am 18.7 18.4 14.4 76 2.5 NW 9 11 5 6 1015.1 1015.1 0.0
03/03:00am 19.4 19.3 14.9 75 2.6 NW 9 11 5 6 1015.5 1015.5 0.0
03/02:30am 19.5 20.1 15.8 79 2.2 NNW 7 9 4 5 1016.0 1016.0 0.0
03/02:00am 20.2 20.4 14.6 70 3.3 NNW 7 9 4 5 1016.3 1016.3 0.0
03/01:30am 20.3 20.2 14.9 71 3.2 NNW 9 13 5 7 1016.8 1016.8 0.0
03/01:00am 19.3 19.6 16.0 81 2.0 NW 9 11 5 6 1017.3 1017.3 0.0
03/12:30am 19.5 20.6 16.7 84 1.7 NW 6 7 3 4 1017.5 1017.5 0.0
03/12:00am 19.0 21.2 16.4 85 1.6 CALM 0 6 0 3 1017.6 1017.6 0.0
 
Date/Time
EDT
Temp
°C
App
Temp
°C
Dew
Point
Rel
Hum
%
Delta-T
°C
Wind Press
QNH
hPa
Press
MSL
hPa
Rain
since 9 am
mm
Dir
 
Spd
km/h
Gust
km/h
Spd
kts
Gust
kts
02/11:30pm 19.2 21.5 16.8 86 1.4 CALM 0 0 0 0 1017.7 1017.7 0.0
02/11:00pm 19.3 21.7 17.1 87 1.3 CALM 0 0 0 0 1017.8 1017.8 0.0
02/10:30pm 19.3 20.3 16.9 86 1.5 WSW 7 11 4 6 1017.8 1017.8 0.0
02/10:00pm 19.1 19.7 16.9 87 1.3 W 9 11 5 6 1017.8 1017.8 0.0
02/09:30pm 19.5 20.5 16.9 85 1.6 NW 7 9 4 5 1017.4 1017.4 0.0
02/09:00pm 20.1 21.0 16.7 81 2.1 NW 7 7 4 4 1017.4 1017.4 0.0
02/08:30pm 21.3 21.8 16.5 74 2.9 N 9 11 5 6 1017.5 1017.5 0.0
02/08:00pm 21.3 22.1 16.3 73 3.0 ENE 7 11 4 6 1017.6 1017.6 0.0
02/07:30pm 21.6 21.8 15.7 69 3.5 ENE 9 11 5 6 1017.4 1017.4 0.0
02/07:00pm 22.0 22.1 15.4 66 3.9 ENE 9 13 5 7 1017.2 1017.2 0.0
02/06:30pm 22.2 22.4 15.8 67 3.8 ENE 9 15 5 8 1017.1 1017.1 0.0
02/06:00pm 22.2 22.6 15.3 65 4.1 ESE 7 11 4 6 1017.0 1017.0 0.0
02/05:30pm 22.5 23.3 16.3 68 3.8 E 7 11 4 6 1017.0 1017.0 0.0
02/05:00pm 22.6 23.5 16.2 67 3.9 ESE 6 11 3 6 1017.1 1017.1 0.0
02/04:30pm 22.3 22.6 15.9 67 3.9 E 9 15 5 8 1017.1 1017.1 0.0
02/04:00pm 22.4 22.1 15.5 65 4.1 ESE 11 17 6 9 1017.2 1017.2 0.0
02/03:30pm 22.5 22.1 16.3 68 3.8 ESE 13 19 7 10 1017.5 1017.5 0.0
02/03:00pm 22.6 22.1 15.9 66 4.0 E 13 20 7 11 1017.8 1017.8 0.0
02/02:30pm 23.0 22.6 16.1 65 4.2 ESE 13 20 7 11 1017.8 1017.8 0.0
02/02:00pm 22.9 22.1 15.2 62 4.6 E 13 20 7 11 1018.1 1018.1 0.0
02/01:30pm 23.0 22.3 15.3 62 4.6 SSE 13 24 7 13 1018.4 1018.4 0.0
02/01:00pm 22.7 21.8 14.8 61 4.7 SE 13 26 7 14 1018.8 1018.8 0.0
02/12:30pm 22.4 21.1 14.8 62 4.5 SE 15 20 8 11 1019.3 1019.3 0.0
02/12:00pm 23.0 21.6 15.6 63 4.4 SSE 17 28 9 15 1019.2 1019.2 0.0
02/11:30am 23.1 21.8 15.7 63 4.5 SSE 17 28 9 15 1019.6 1019.6 0.0
02/11:00am 22.2 20.3 14.3 61 4.6 SSE 17 26 9 14 1019.4 1019.4 0.0
02/10:30am 22.1 20.6 14.2 61 4.6 S 15 24 8 13 1019.3 1019.3 0.0
02/10:00am 21.8 20.3 14.2 62 4.4 SSW 15 24 8 13 1019.6 1019.6 0.0
02/09:30am 21.2 19.8 13.4 61 4.5 S 13 22 7 12 1019.4 1019.4 0.0
02/09:00am 20.5 19.0 13.2 63 4.2 SSW 13 17 7 9 1019.2 1019.2 4.2
02/08:30am 19.1 17.7 12.1 64 3.9 WSW 11 15 6 8 1019.1 1019.1 4.2
02/08:00am 17.9 16.1 12.1 69 3.2 SW 13 15 7 8 1019.1 1019.1 4.2
02/07:30am 16.4 15.0 12.2 76 2.3 WSW 11 13 6 7 1018.8 1018.8 4.2

Other Formats:

Comma delimited format used in spreadsheet applications
http://www.bom.gov.au/fwo/IDN60801/IDN60801.95748.axf

JavaScript Object Notation format (JSON) in row-major order
http://www.bom.gov.au/fwo/IDN60801/IDN60801.95748.json